createdAt,value
2022-09-16T00:00:58.851Z,74.80
2022-09-16T00:03:26.854Z,74.50
2022-09-16T00:05:54.772Z,74.20
2022-09-16T00:08:22.905Z,74.20
2022-09-16T00:10:50.901Z,74.10
2022-09-16T00:13:19.565Z,74.40
2022-09-16T00:15:50.985Z,74.80
2022-09-16T00:18:20.484Z,75.20
2022-09-16T00:20:50.294Z,75.20
2022-09-16T00:23:18.948Z,75.20
2022-09-16T00:25:53.735Z,75.30
2022-09-16T00:28:22.786Z,75.60
2022-09-16T00:30:50.807Z,75.40
2022-09-16T00:33:19.332Z,75.20
2022-09-16T00:35:47.547Z,75.20
2022-09-16T00:38:15.225Z,75.20
2022-09-16T00:40:47.493Z,75.00
2022-09-16T00:43:17.103Z,75.20
2022-09-16T00:45:47.677Z,75.20
2022-09-16T00:48:24.056Z,75.10
2022-09-16T00:50:56.661Z,75.20
2022-09-16T00:53:31.265Z,75.20
2022-09-16T00:56:00.975Z,75.20
2022-09-16T00:58:48.593Z,75.20
2022-09-16T01:01:16.335Z,75.40
2022-09-16T01:03:51.250Z,75.20
2022-09-16T01:06:19.493Z,75.50
2022-09-16T01:08:50.044Z,75.40
2022-09-16T01:11:18.173Z,75.50
2022-09-16T01:13:46.957Z,75.50
2022-09-16T01:16:32.678Z,75.30
2022-09-16T01:19:16.441Z,75.70
2022-09-16T01:21:54.696Z,75.70
2022-09-16T01:24:59.810Z,75.70
2022-09-16T01:27:51.441Z,76.10
2022-09-16T01:30:47.900Z,76.10
2022-09-16T01:33:24.288Z,76.00
2022-09-16T01:36:18.745Z,75.80
2022-09-16T01:39:05.053Z,76.10
2022-09-16T01:41:56.619Z,75.80
2022-09-16T01:44:35.852Z,76.10
2022-09-16T01:47:05.760Z,76.10
2022-09-16T01:49:52.523Z,75.80
2022-09-16T01:52:31.464Z,76.20
2022-09-16T01:55:04.536Z,76.30
2022-09-16T01:57:41.155Z,76.50
2022-09-16T02:00:14.336Z,76.70
2022-09-16T02:02:51.420Z,76.60
2022-09-16T02:05:28.245Z,76.80
2022-09-16T02:08:02.758Z,76.70
2022-09-16T02:10:35.532Z,76.80
2022-09-16T02:13:10.620Z,76.70
2022-09-16T02:15:39.623Z,76.60
2022-09-16T02:18:13.355Z,77.00
2022-09-16T02:20:44.812Z,77.30
2022-09-16T02:23:20.648Z,77.20
2022-09-16T02:25:50.401Z,77.30
2022-09-16T02:28:24.688Z,77.40
2022-09-16T02:30:55.254Z,77.40
2022-09-16T02:33:30.360Z,77.20
2022-09-16T02:35:58.969Z,77.30
2022-09-16T02:38:48.056Z,77.20
2022-09-16T02:41:15.914Z,77.40
2022-09-16T02:43:45.207Z,77.10
2022-09-16T02:46:29.212Z,77.10
2022-09-16T02:48:59.731Z,77.20
2022-09-16T02:51:55.447Z,77.20
2022-09-16T02:54:36.712Z,77.20
2022-09-16T02:57:04.838Z,77.00
2022-09-16T02:59:32.698Z,76.90
2022-09-16T03:02:01.387Z,77.00
2022-09-16T03:04:29.575Z,76.90
2022-09-16T03:06:57.435Z,76.80
2022-09-16T03:09:25.062Z,76.80
2022-09-16T03:12:17.526Z,76.60
2022-09-16T03:14:59.742Z,76.70
2022-09-16T03:17:54.748Z,76.70
2022-09-16T03:20:41.508Z,76.90
2022-09-16T03:23:47.163Z,76.70
2022-09-16T03:26:34.483Z,76.80
2022-09-16T03:29:19.926Z,76.70
2022-09-16T03:31:55.317Z,76.60
2022-09-16T03:34:46.566Z,76.60
2022-09-16T03:37:17.313Z,76.80
2022-09-16T03:39:58.125Z,76.60
2022-09-16T03:42:26.086Z,76.70
2022-09-16T03:44:53.574Z,76.60
2022-09-16T03:47:20.852Z,76.60
2022-09-16T03:49:48.210Z,76.60
2022-09-16T03:52:18.499Z,76.50
2022-09-16T03:54:46.107Z,76.60
2022-09-16T03:57:13.360Z,76.40
2022-09-16T03:59:41.079Z,76.50
2022-09-16T04:02:08.587Z,76.40
2022-09-16T04:04:35.788Z,76.30
2022-09-16T04:07:03.000Z,76.40
2022-09-16T04:09:30.396Z,76.10
2022-09-16T04:11:57.897Z,76.10
2022-09-16T04:14:25.307Z,76.20
2022-09-16T04:16:52.656Z,76.40
2022-09-16T04:19:20.344Z,76.30
2022-09-16T04:21:47.830Z,76.30
2022-09-16T04:24:15.236Z,76.20
2022-09-16T04:26:42.982Z,76.30
2022-09-16T04:29:10.772Z,76.40
2022-09-16T04:31:38.519Z,76.50
2022-09-16T04:34:06.407Z,76.50
2022-09-16T04:36:34.167Z,76.50
2022-09-16T04:39:01.610Z,76.40
2022-09-16T04:41:29.216Z,76.50
2022-09-16T04:43:59.479Z,76.40
2022-09-16T04:46:28.928Z,76.40
2022-09-16T04:48:57.196Z,76.30
2022-09-16T04:51:27.175Z,76.30
2022-09-16T04:53:56.339Z,76.40
2022-09-16T04:56:26.632Z,76.40
2022-09-16T04:58:56.416Z,76.30
2022-09-16T05:01:26.722Z,76.30
2022-09-16T05:03:57.461Z,76.30
2022-09-16T05:06:27.430Z,76.30
2022-09-16T05:08:56.771Z,76.30
2022-09-16T05:11:27.512Z,76.20
2022-09-16T05:13:58.633Z,76.20
2022-09-16T05:16:26.875Z,76.20
2022-09-16T05:18:56.346Z,76.30
2022-09-16T05:21:25.796Z,76.30
2022-09-16T05:23:54.018Z,76.30
2022-09-16T05:26:24.648Z,76.30
2022-09-16T05:28:52.392Z,76.40
2022-09-16T05:31:28.409Z,76.50
2022-09-16T05:34:01.709Z,76.60
2022-09-16T05:36:31.855Z,76.60
2022-09-16T05:39:21.574Z,76.50
2022-09-16T05:41:48.162Z,76.30
2022-09-16T05:44:15.880Z,76.40
2022-09-16T05:46:43.943Z,76.50
2022-09-16T05:49:11.960Z,76.30
2022-09-16T05:51:41.338Z,76.40
2022-09-16T05:54:08.787Z,76.40
2022-09-16T05:56:37.536Z,76.50
2022-09-16T05:59:05.416Z,76.50
2022-09-16T06:01:35.679Z,76.40
2022-09-16T06:04:05.812Z,76.50
2022-09-16T06:06:36.038Z,76.40
2022-09-16T06:09:28.499Z,77.30
2022-09-16T06:12:01.630Z,76.00
2022-09-16T06:14:30.178Z,75.80
2022-09-16T06:16:57.736Z,75.80
2022-09-16T06:19:26.612Z,75.80
2022-09-16T06:21:54.020Z,75.90
2022-09-16T06:24:21.846Z,76.10
2022-09-16T06:26:49.392Z,75.90
2022-09-16T06:29:17.632Z,75.40
2022-09-16T06:31:45.371Z,75.30
2022-09-16T06:34:18.558Z,75.30
2022-09-16T06:36:46.541Z,75.30
2022-09-16T06:39:15.817Z,74.80
2022-09-16T06:41:43.653Z,74.70
2022-09-16T06:44:11.596Z,74.80
2022-09-16T06:46:39.283Z,74.70
2022-09-16T06:49:07.026Z,74.00
2022-09-16T06:51:34.976Z,73.70
2022-09-16T06:54:06.629Z,73.40
2022-09-16T06:56:37.511Z,73.20
2022-09-16T06:59:05.983Z,73.30
2022-09-16T07:01:34.371Z,73.00
2022-09-16T07:04:05.362Z,72.90
2022-09-16T07:07:04.934Z,73.20
2022-09-16T07:09:22.416Z,73.50
2022-09-16T07:11:50.319Z,73.10
2022-09-16T07:14:17.847Z,73.40
2022-09-16T07:16:46.142Z,71.40
2022-09-16T07:19:13.552Z,70.30
2022-09-16T07:21:41.735Z,70.90
2022-09-16T07:24:11.801Z,70.40
2022-09-16T07:26:40.662Z,69.00
2022-09-16T07:29:11.595Z,66.50
2022-09-16T07:31:39.104Z,64.70
2022-09-16T07:34:09.731Z,63.30
2022-09-16T07:36:48.245Z,61.40
2022-09-16T07:39:18.267Z,60.80
2022-09-16T07:41:48.393Z,60.80
2022-09-16T07:44:19.254Z,61.20
2022-09-16T07:46:48.020Z,59.00
2022-09-16T07:49:15.515Z,59.70
2022-09-16T07:51:43.528Z,57.30
2022-09-16T07:54:15.728Z,56.90
2022-09-16T07:56:44.307Z,55.60
2022-09-16T07:59:18.397Z,55.00
2022-09-16T08:01:48.315Z,54.40
2022-09-16T08:04:17.766Z,53.50
2022-09-16T08:06:47.253Z,51.80
2022-09-16T08:12:05.313Z,50.90
2022-09-16T08:14:33.535Z,51.20
2022-09-16T08:17:01.990Z,49.40
2022-09-16T08:19:29.979Z,49.80
2022-09-16T08:21:57.685Z,49.90
2022-09-16T08:24:26.484Z,49.20
2022-09-16T08:26:57.756Z,48.20
2022-09-16T08:29:25.795Z,48.10
2022-09-16T08:31:53.217Z,47.80
2022-09-16T08:34:20.801Z,48.00
2022-09-16T08:36:48.675Z,48.70
2022-09-16T08:39:16.432Z,48.30
2022-09-16T08:42:09.914Z,48.80
2022-09-16T08:45:16.140Z,49.20
2022-09-16T08:48:08.132Z,49.70
2022-09-16T08:50:40.851Z,50.70
2022-09-16T08:53:35.016Z,51.80
2022-09-16T08:56:11.657Z,51.70
2022-09-16T08:58:43.493Z,51.10
2022-09-16T09:01:48.336Z,50.50
2022-09-16T09:04:16.569Z,50.00
2022-09-16T09:07:24.022Z,49.60
2022-09-16T09:09:54.226Z,49.30
2022-09-16T09:12:37.054Z,48.60
2022-09-16T09:15:28.352Z,47.30
2022-09-16T09:18:16.187Z,46.40
2022-09-16T09:21:03.970Z,47.20
2022-09-16T09:23:53.725Z,47.30
2022-09-16T09:26:40.795Z,47.60
2022-09-16T09:29:33.825Z,47.70
2022-09-16T09:32:22.032Z,49.10
2022-09-16T09:34:55.221Z,50.70
2022-09-16T09:37:43.349Z,51.00
2022-09-16T09:40:57.388Z,51.60
2022-09-16T09:43:44.945Z,50.60
2022-09-16T09:46:27.510Z,51.10
2022-09-16T09:49:02.256Z,50.60
2022-09-16T09:51:54.857Z,50.60
2022-09-16T09:54:31.653Z,50.20
2022-09-16T09:57:31.304Z,50.20
2022-09-16T10:00:12.078Z,50.90
2022-09-16T10:02:44.934Z,50.20
2022-09-16T10:05:22.746Z,49.90
2022-09-16T10:07:59.237Z,49.50
2022-09-16T10:10:33.549Z,49.80
2022-09-16T10:13:13.002Z,49.80
2022-09-16T10:15:43.228Z,49.90
2022-09-16T10:18:14.616Z,50.20
2022-09-16T10:20:44.416Z,50.40
2022-09-16T10:23:20.499Z,50.10
2022-09-16T10:25:48.176Z,49.30
2022-09-16T10:28:25.709Z,49.70
2022-09-16T10:30:56.257Z,49.60
2022-09-16T10:33:34.441Z,49.80
2022-09-16T10:36:05.448Z,49.80
2022-09-16T10:38:45.995Z,49.90
2022-09-16T10:41:22.140Z,50.00
2022-09-16T10:43:58.891Z,49.20
2022-09-16T10:46:27.767Z,50.00
2022-09-16T10:49:11.717Z,50.20
2022-09-16T10:51:39.084Z,50.60
2022-09-16T10:54:07.028Z,49.90
2022-09-16T10:56:50.212Z,50.10
2022-09-16T10:59:17.872Z,50.30
2022-09-16T11:01:56.073Z,50.40
2022-09-16T11:04:51.651Z,49.70
2022-09-16T11:07:54.018Z,50.40
2022-09-16T11:10:45.352Z,50.40
2022-09-16T11:13:19.451Z,50.50
2022-09-16T11:16:05.715Z,50.10
2022-09-16T11:18:50.658Z,49.80
2022-09-16T11:21:41.639Z,49.50
2022-09-16T11:24:27.021Z,48.00
2022-09-16T11:26:55.891Z,48.50
2022-09-16T11:29:39.562Z,49.00
2022-09-16T11:32:16.023Z,48.60
2022-09-16T11:34:58.653Z,48.10
2022-09-16T11:37:34.294Z,48.40
2022-09-16T11:40:38.808Z,48.60
2022-09-16T11:43:14.007Z,49.70
2022-09-16T11:45:56.858Z,49.30
2022-09-16T11:48:54.367Z,49.90
2022-09-16T11:51:54.912Z,49.60
2022-09-16T11:54:25.605Z,49.40
2022-09-16T11:56:58.111Z,48.90
2022-09-16T11:59:35.056Z,48.40
2022-09-16T12:02:26.307Z,48.70
2022-09-16T12:05:03.279Z,48.90
2022-09-16T12:07:44.636Z,49.30
2022-09-16T12:10:26.469Z,49.00
2022-09-16T12:13:22.246Z,48.50
2022-09-16T12:15:54.827Z,49.10
2022-09-16T12:18:33.185Z,48.50
2022-09-16T12:21:19.583Z,47.70
2022-09-16T12:23:57.602Z,47.70
2022-09-16T12:26:41.964Z,47.70
2022-09-16T12:29:18.333Z,47.40
2022-09-16T12:31:52.313Z,47.60
2022-09-16T12:34:38.264Z,46.60
2022-09-16T12:37:18.654Z,46.20
2022-09-16T12:39:49.484Z,46.90
2022-09-16T12:42:46.069Z,45.90
2022-09-16T12:45:16.947Z,46.00
2022-09-16T12:47:57.518Z,46.00
2022-09-16T12:50:46.977Z,47.80
2022-09-16T12:53:33.023Z,50.10
2022-09-16T12:56:23.986Z,51.60
2022-09-16T12:59:16.842Z,54.00
2022-09-16T13:02:18.569Z,53.70
2022-09-16T13:04:50.980Z,53.40
2022-09-16T13:07:29.611Z,53.20
2022-09-16T13:10:26.462Z,54.20
2022-09-16T13:13:06.048Z,53.70
2022-09-16T13:15:36.596Z,52.80
2022-09-16T13:18:19.231Z,52.50
2022-09-16T13:20:51.853Z,52.90
2022-09-16T13:23:27.680Z,52.50
2022-09-16T13:26:09.794Z,51.60
2022-09-16T13:28:43.351Z,52.00
2022-09-16T13:31:14.100Z,51.60
2022-09-16T13:33:44.419Z,50.90
2022-09-16T13:36:20.429Z,50.50
2022-09-16T13:39:12.812Z,49.70
2022-09-16T13:41:46.075Z,50.00
2022-09-16T13:44:37.126Z,49.80
2022-09-16T13:47:11.281Z,49.50
2022-09-16T13:49:53.372Z,49.30
2022-09-16T13:52:30.492Z,49.00
2022-09-16T13:55:11.404Z,48.70
2022-09-16T13:58:10.104Z,48.20
2022-09-16T14:01:08.643Z,48.20
2022-09-16T14:03:45.908Z,48.10
2022-09-16T14:06:45.984Z,47.60
2022-09-16T14:09:29.037Z,48.20
2022-09-16T14:12:20.139Z,48.30
2022-09-16T14:14:48.372Z,48.10
2022-09-16T14:17:23.285Z,47.80
2022-09-16T14:19:58.098Z,46.30
2022-09-16T14:22:27.427Z,46.90
2022-09-16T14:25:06.106Z,47.00
2022-09-16T14:27:39.399Z,46.60
2022-09-16T14:30:16.607Z,47.20
2022-09-16T14:32:45.432Z,47.00
2022-09-16T14:35:24.077Z,47.50
2022-09-16T14:37:56.899Z,46.70
2022-09-16T14:40:28.529Z,47.60
2022-09-16T14:43:05.647Z,47.40
2022-09-16T14:45:35.488Z,47.30
2022-09-16T14:48:07.653Z,47.50
2022-09-16T14:50:41.844Z,47.90
2022-09-16T14:53:34.734Z,48.00
2022-09-16T14:56:04.379Z,48.70
2022-09-16T14:58:33.505Z,48.80
2022-09-16T15:01:12.239Z,48.90
2022-09-16T15:03:46.243Z,49.40
2022-09-16T15:06:23.956Z,50.20
2022-09-16T15:09:13.295Z,51.50
2022-09-16T15:11:52.328Z,51.90
2022-09-16T15:14:20.704Z,52.50
2022-09-16T15:16:51.923Z,53.00
2022-09-16T15:19:26.167Z,53.20
2022-09-16T15:21:54.213Z,53.80
2022-09-16T15:24:28.779Z,53.70
2022-09-16T15:26:57.547Z,54.00
2022-09-16T15:29:25.087Z,54.30
2022-09-16T15:31:52.813Z,53.90
2022-09-16T15:34:23.075Z,54.00
2022-09-16T15:36:58.491Z,54.40
2022-09-16T15:39:37.911Z,54.10
2022-09-16T15:42:12.142Z,54.50
2022-09-16T15:44:50.130Z,54.70
2022-09-16T15:47:32.819Z,54.90
2022-09-16T15:50:06.517Z,55.00
2022-09-16T15:52:50.426Z,54.90
2022-09-16T15:55:44.117Z,54.80
2022-09-16T15:58:24.159Z,55.10
2022-09-16T16:01:03.345Z,55.10
2022-09-16T16:03:44.699Z,55.30
2022-09-16T16:06:12.531Z,55.60
2022-09-16T16:08:52.520Z,55.50
2022-09-16T16:11:25.661Z,56.10
2022-09-16T16:13:53.014Z,56.50
2022-09-16T16:16:21.504Z,57.00
2022-09-16T16:18:48.954Z,57.50
2022-09-16T16:21:17.299Z,58.70
2022-09-16T16:23:44.851Z,58.70
2022-09-16T16:26:12.267Z,59.00
2022-09-16T16:28:40.811Z,59.40
2022-09-16T16:31:18.600Z,59.20
2022-09-16T16:33:47.815Z,60.00
2022-09-16T16:36:17.538Z,59.30
2022-09-16T16:38:46.200Z,59.60
2022-09-16T16:41:20.084Z,59.40
2022-09-16T16:43:47.607Z,60.00
2022-09-16T16:46:17.466Z,59.50
2022-09-16T16:48:45.251Z,59.60
2022-09-16T16:51:13.351Z,60.10
2022-09-16T16:53:40.878Z,60.00
2022-09-16T16:56:15.452Z,60.30
2022-09-16T16:58:43.123Z,61.00
2022-09-16T17:01:16.333Z,60.80
2022-09-16T17:03:46.397Z,61.30
2022-09-16T17:06:14.061Z,61.10
2022-09-16T17:08:41.693Z,61.50
2022-09-16T17:11:18.400Z,61.60
2022-09-16T17:13:48.988Z,62.00
2022-09-16T17:16:21.901Z,61.60
2022-09-16T17:18:50.732Z,61.70
2022-09-16T17:21:21.142Z,61.80
2022-09-16T17:23:48.657Z,62.60
2022-09-16T17:26:16.688Z,62.00
2022-09-16T17:28:46.059Z,61.90
2022-09-16T17:31:24.269Z,62.10
2022-09-16T17:33:56.027Z,63.60
2022-09-16T17:36:24.569Z,63.90
2022-09-16T17:39:03.810Z,64.70
2022-09-16T17:41:31.813Z,65.50
2022-09-16T17:44:03.925Z,65.40
2022-09-16T17:46:31.524Z,65.70
2022-09-16T17:49:04.117Z,65.80
2022-09-16T17:51:33.576Z,66.10
2022-09-16T17:54:03.909Z,66.00
2022-09-16T17:56:31.790Z,66.20
2022-09-16T17:58:59.115Z,67.30
2022-09-16T18:01:27.059Z,66.70
2022-09-16T18:03:55.865Z,66.40
2022-09-16T18:06:30.880Z,66.70
2022-09-16T18:09:00.966Z,66.90
2022-09-16T18:11:28.731Z,66.70
2022-09-16T18:13:58.347Z,66.80
2022-09-16T18:16:27.680Z,67.20
2022-09-16T18:18:57.879Z,67.10
2022-09-16T18:21:27.580Z,67.60
2022-09-16T18:23:57.538Z,68.00
2022-09-16T18:26:26.896Z,67.80
2022-09-16T18:29:12.391Z,68.30
2022-09-16T18:31:43.506Z,68.30
2022-09-16T18:34:11.861Z,68.00
2022-09-16T18:36:40.240Z,68.30
2022-09-16T18:39:13.188Z,68.80
2022-09-16T18:41:42.669Z,69.40
2022-09-16T18:44:20.018Z,69.10
2022-09-16T18:46:47.746Z,69.50
2022-09-16T18:49:17.098Z,69.50
2022-09-16T18:51:51.945Z,69.30
2022-09-16T18:54:25.861Z,69.40
2022-09-16T18:56:55.897Z,69.10
2022-09-16T18:59:27.725Z,69.00
2022-09-16T19:01:58.516Z,68.90
2022-09-16T19:04:29.004Z,69.20
2022-09-16T19:07:05.702Z,69.50
2022-09-16T19:09:36.072Z,69.50
2022-09-16T19:12:04.056Z,69.40
2022-09-16T19:14:31.568Z,69.20
2022-09-16T19:16:59.287Z,69.30
2022-09-16T19:19:27.002Z,69.70
2022-09-16T19:21:54.743Z,70.30
2022-09-16T19:24:24.995Z,70.60
2022-09-16T19:26:54.846Z,70.40
2022-09-16T19:29:22.616Z,70.30
2022-09-16T19:31:52.845Z,69.80
2022-09-16T19:34:21.544Z,70.60
2022-09-16T19:36:49.628Z,70.20
2022-09-16T19:39:17.600Z,70.30
2022-09-16T19:41:45.568Z,71.20
2022-09-16T19:44:15.962Z,71.40
2022-09-16T19:46:46.664Z,71.50
2022-09-16T19:49:16.790Z,71.80
2022-09-16T19:51:44.220Z,72.00
2022-09-16T19:54:11.978Z,72.30
2022-09-16T19:56:41.048Z,71.40
2022-09-16T19:59:09.068Z,71.30
2022-09-16T20:01:37.575Z,71.30
2022-09-16T20:04:07.585Z,71.40
2022-09-16T20:06:40.535Z,71.90
2022-09-16T20:09:13.577Z,72.00
2022-09-16T20:11:44.106Z,72.20
2022-09-16T20:14:21.898Z,71.90
2022-09-16T20:16:51.637Z,72.60
2022-09-16T20:19:20.051Z,72.40
2022-09-16T20:21:48.689Z,72.50
2022-09-16T20:24:18.731Z,72.50
2022-09-16T20:26:50.480Z,72.50
2022-09-16T20:29:18.745Z,72.50
2022-09-16T20:31:48.219Z,72.10
2022-09-16T20:34:16.779Z,72.30
2022-09-16T20:36:45.971Z,72.00
2022-09-16T20:39:14.315Z,71.90
2022-09-16T20:41:42.480Z,72.20
2022-09-16T20:44:14.750Z,72.60
2022-09-16T20:46:42.115Z,73.10
2022-09-16T20:49:14.547Z,73.20
2022-09-16T20:51:42.476Z,73.60
2022-09-16T20:54:12.107Z,73.60
2022-09-16T20:56:42.168Z,73.90
2022-09-16T20:59:12.099Z,74.10
2022-09-16T21:01:41.459Z,73.70
2022-09-16T21:04:13.693Z,73.40
2022-09-16T21:06:41.643Z,73.30
2022-09-16T21:09:11.554Z,73.30
2022-09-16T21:11:45.131Z,73.60
2022-09-16T21:14:15.906Z,74.10
2022-09-16T21:16:45.786Z,74.10
2022-09-16T21:19:14.271Z,74.20
2022-09-16T21:21:44.333Z,74.40
2022-09-16T21:24:13.026Z,74.90
2022-09-16T21:26:41.345Z,74.90
2022-09-16T21:29:12.431Z,74.70
2022-09-16T21:31:41.698Z,74.40
2022-09-16T21:34:15.389Z,74.50
2022-09-16T21:36:44.375Z,74.80
2022-09-16T21:39:13.699Z,74.50
2022-09-16T21:41:41.967Z,74.40
2022-09-16T21:44:09.652Z,74.10
2022-09-16T21:46:46.339Z,74.00
2022-09-16T21:49:24.179Z,73.80
2022-09-16T21:51:53.794Z,73.70
2022-09-16T21:54:21.980Z,73.40
2022-09-16T21:56:51.075Z,73.30
2022-09-16T21:59:19.836Z,73.40
2022-09-16T22:01:49.862Z,74.00
2022-09-16T22:04:23.950Z,74.00
2022-09-16T22:06:54.834Z,74.30
2022-09-16T22:09:22.834Z,74.40
2022-09-16T22:11:50.335Z,74.20
2022-09-16T22:14:17.876Z,74.30
2022-09-16T22:16:45.653Z,74.40
2022-09-16T22:19:16.595Z,74.50
2022-09-16T22:21:46.429Z,75.00
2022-09-16T22:24:16.099Z,75.20
2022-09-16T22:26:43.705Z,75.40
2022-09-16T22:29:13.127Z,75.10
2022-09-16T22:31:41.926Z,75.20
2022-09-16T22:34:10.043Z,75.40
2022-09-16T22:36:38.381Z,75.40
2022-09-16T22:39:18.241Z,75.50
2022-09-16T22:41:47.240Z,75.80
2022-09-16T22:44:16.014Z,75.70
2022-09-16T22:46:45.458Z,75.50
2022-09-16T22:49:13.333Z,75.50
2022-09-16T22:51:41.814Z,75.30
2022-09-16T22:54:11.383Z,75.50
2022-09-16T22:56:38.734Z,75.70
2022-09-16T22:59:07.804Z,75.80
2022-09-16T23:01:39.778Z,75.90
2022-09-16T23:04:09.312Z,75.90
2022-09-16T23:06:38.204Z,75.90
2022-09-16T23:09:07.369Z,75.80
2022-09-16T23:11:35.963Z,76.00
2022-09-16T23:14:06.315Z,75.80
2022-09-16T23:16:37.491Z,75.70
2022-09-16T23:19:08.459Z,75.40
2022-09-16T23:21:37.109Z,75.40
2022-09-16T23:24:05.663Z,75.20
2022-09-16T23:26:35.834Z,75.30
2022-09-16T23:29:06.226Z,75.50
2022-09-16T23:31:38.195Z,75.40
2022-09-16T23:34:24.971Z,75.40
2022-09-16T23:36:52.303Z,75.30
2022-09-16T23:39:20.000Z,75.30
2022-09-16T23:41:48.781Z,75.40
2022-09-16T23:44:16.571Z,75.50
2022-09-16T23:46:44.707Z,75.70
2022-09-16T23:49:12.979Z,75.70
2022-09-16T23:51:40.631Z,75.50
2022-09-16T23:54:08.580Z,75.80
2022-09-16T23:56:36.286Z,75.80
2022-09-16T23:59:04.219Z,75.80
